British Captain — 2IYH2 — position and weather

sailwx.info

Track history (hours):
 
Tides and Currents Weather Stations Pressure Air Temp Water Temp Dewpoint Dewpoint Depression Visibility Wind Speed Wind Dir Waves Ship Positions

British Captain

Last reported at 2018-Feb-23 14:00 UTC. Time now 2018-Feb-24 10:15 UTC.
Position N 14°48' W 098°42'.

Length 183 m; draft 11.1 m.

Type: Ship (hazmat cat C). MMSI: 235113768.

Wind from 300 at 8 knots

Barometer 1015.3 mb
Air temperature 29.0 ° C
Visibility: greater than 10.8 NM
Dewpoint 27.7 ° C
Water temperature 26.5 ° C

Date/timePositionNaut miles runAvg speedWind from/ knotsBaromVisibWave heightAir tempDewpointWater temp
2018-Feb-23 14:00N 14°48' W 098°42'62312.7 300 / 81015.310.8 29.027.726.5
2018-Feb-21 13:00N 09°18' W 089°42'60412.6 060 / 221012.310.8 25.023.622.5
2018-Feb-19 13:00N 07°24' W 079°42'110 6.3 010 / 211011.110.8 25.023.522.1
2018-Feb-18 19:35N 09°13' W 079°56'0 0.1
2018-Feb-18 17:33N 09°13' W 079°56'0 0.0
2018-Feb-18 13:39N 09°13' W 079°56'0 0.0
2018-Feb-18 13:29N 09°13' W 079°56'0 0.0
2018-Feb-18 12:51N 09°13' W 079°56'0 0.0
2018-Feb-18 12:27N 09°13' W 079°56'0 0.0
2018-Feb-18 08:39N 09°13' W 079°56'0 0.2
2018-Feb-18 08:15N 09°13' W 079°56'0 0.4
2018-Feb-18 07:58N 09°13' W 079°56'3 3.4
2018-Feb-18 07:11N 09°16' W 079°55'0 1.9
2018-Feb-18 07:00N 09°16' W 079°55'0 0.4
2018-Feb-18 06:30N 09°16' W 079°55'0 0.4
2018-Feb-18 05:58N 09°17' W 079°55'0 0.5
2018-Feb-18 05:31N 09°17' W 079°55'0 0.9
2018-Feb-18 05:00N 09°17' W 079°55'1 3.0
2018-Feb-18 04:30N 09°19' W 079°55'3 6.7
2018-Feb-18 04:00N 09°22' W 079°55'2 4.7
2018-Feb-18 03:30N 09°24' W 079°56'0 0.8
2018-Feb-18 02:58N 09°24' W 079°57'0 0.0
2018-Feb-18 02:28N 09°24' W 079°57'0 0.0
2018-Feb-18 01:58N 09°24' W 079°57'0 0.0
2018-Feb-18 01:28N 09°24' W 079°57'0 0.0
2018-Feb-18 00:58N 09°24' W 079°57'0 0.0
2018-Feb-18 00:28N 09°24' W 079°57'0 0.0
2018-Feb-17 23:58N 09°24' W 079°57'0 0.0
2018-Feb-17 23:28N 09°24' W 079°57'0 0.0
2018-Feb-17 22:58N 09°24' W 079°57'0 0.0
2018-Feb-17 22:28N 09°24' W 079°57'0 0.0
2018-Feb-17 21:59N 09°24' W 079°57'0 0.0
2018-Feb-17 21:29N 09°24' W 079°57'2 5.0
2018-Feb-17 21:00N 09°24' W 079°54'2560.3 030 / 201014.0 5.4 27.024.126.3
2018-Feb-17 20:59N 09°24' W 079°57'0 0.0
2018-Feb-17 20:29N 09°24' W 079°57'0 0.0
2018-Feb-17 19:59N 09°24' W 079°57'0 0.0
2018-Feb-17 19:29N 09°24' W 079°57'0 0.0
2018-Feb-17 18:59N 09°24' W 079°57'0 0.0
2018-Feb-17 18:29N 09°24' W 079°57'0 0.0
2018-Feb-17 17:59N 09°24' W 079°57'0 0.0
2018-Feb-17 17:29N 09°24' W 079°57'0 0.0
2018-Feb-17 16:59N 09°24' W 079°57'0 0.0
2018-Feb-17 16:29N 09°24' W 079°57'0 0.0
2018-Feb-17 15:59N 09°24' W 079°57'0 0.0
2018-Feb-17 15:29N 09°24' W 079°57'0 0.0
2018-Feb-17 14:59N 09°24' W 079°57'0 0.0
2018-Feb-17 14:29N 09°24' W 079°57'0 0.0
2018-Feb-17 13:59N 09°24' W 079°57'0 0.0
2018-Feb-17 13:29N 09°24' W 079°57'0 0.0
2018-Feb-17 12:59N 09°24' W 079°57'0 0.0
2018-Feb-17 12:29N 09°24' W 079°57'0 0.0
2018-Feb-17 11:59N 09°24' W 079°57'0 0.0
2018-Feb-17 11:29N 09°24' W 079°57'0 0.0
2018-Feb-17 10:59N 09°24' W 079°57'0 0.0
2018-Feb-17 10:29N 09°24' W 079°57'0 0.0
2018-Feb-17 09:59N 09°24' W 079°57'0 0.0
2018-Feb-17 09:29N 09°24' W 079°57'0 0.0
2018-Feb-17 08:59N 09°24' W 079°57'0 0.0
2018-Feb-17 08:29N 09°24' W 079°57'0 0.0
2018-Feb-17 07:59N 09°24' W 079°57'0 0.0
2018-Feb-17 07:29N 09°24' W 079°57'0 0.0
2018-Feb-17 06:59N 09°24' W 079°57'0 0.0
2018-Feb-17 06:29N 09°24' W 079°57'0 0.0
2018-Feb-17 05:59N 09°24' W 079°57'0 0.0
2018-Feb-17 05:29N 09°24' W 079°57'0 0.0
2018-Feb-17 04:59N 09°24' W 079°57'0 0.0
2018-Feb-17 04:29N 09°24' W 079°57'0 0.0
2018-Feb-17 03:59N 09°24' W 079°57'0 0.0
2018-Feb-17 03:26N 09°24' W 079°57'0 0.0
2018-Feb-17 02:59N 09°24' W 079°57'0 0.0
2018-Feb-17 02:29N 09°24' W 079°57'0 0.0
2018-Feb-17 01:59N 09°24' W 079°57'0 0.0
2018-Feb-17 01:29N 09°24' W 079°57'612.9
2018-Feb-17 01:00N 09°18' W 079°54'6953.8 030 / 281014.110.8 27.025.626.3
2018-Feb-17 00:59N 09°24' W 079°57'0 0.0
2018-Feb-17 00:26N 09°24' W 079°57'0 0.0
2018-Feb-16 23:59N 09°24' W 079°57'0 0.0
2018-Feb-16 23:29N 09°24' W 079°57'0 0.0
2018-Feb-16 22:59N 09°24' W 079°57'0 0.0
2018-Feb-16 22:29N 09°24' W 079°57'0 0.0
2018-Feb-16 21:56N 09°24' W 079°57'0 0.0
2018-Feb-16 21:29N 09°24' W 079°57'0 0.1
2018-Feb-16 21:00N 09°24' W 079°56'1 2.2
2018-Feb-16 20:27N 09°24' W 079°58'3 7.1
2018-Feb-16 20:00N 09°27' W 079°57'24613.0
2018-Feb-16 01:00N 13°24' W 078°48'15412.8 060 / 261015.410.8 26.025.325.6
2018-Feb-15 13:00N 15°54' W 078°12'   080 / 231018.6 5.4 29.027.625.4
Track history (hours):
 
Tides and Currents Weather Stations Pressure Air Temp Water Temp Dewpoint Dewpoint Depression Visibility Wind Speed Wind Dir Waves Ship Positions

British Captain

Last reported at 2018-Feb-23 14:00 UTC. Time now 2018-Feb-24 10:15 UTC.
Position N 14°48' W 098°42'.

Length 183 m; draft 11.1 m.

Type: Ship (hazmat cat C). MMSI: 235113768.

Wind from 300 at 8 knots

Barometer 1015.3 mb
Air temperature 29.0 ° C
Visibility: greater than 10.8 NM
Dewpoint 27.7 ° C
Water temperature 26.5 ° C

Date/timePositionNaut miles runAvg speedWind from/ knotsBaromVisibWave heightAir tempDewpointWater temp
2018-Feb-23 14:00N 14°48' W 098°42'62312.7 300 / 81015.310.8 29.027.726.5
2018-Feb-21 13:00N 09°18' W 089°42'60412.6 060 / 221012.310.8 25.023.622.5
2018-Feb-19 13:00N 07°24' W 079°42'110 6.3 010 / 211011.110.8 25.023.522.1
2018-Feb-18 19:35N 09°13' W 079°56'0 0.1
2018-Feb-18 17:33N 09°13' W 079°56'0 0.0
2018-Feb-18 13:39N 09°13' W 079°56'0 0.0
2018-Feb-18 13:29N 09°13' W 079°56'0 0.0
2018-Feb-18 12:51N 09°13' W 079°56'0 0.0
2018-Feb-18 12:27N 09°13' W 079°56'0 0.0
2018-Feb-18 08:39N 09°13' W 079°56'0 0.2
2018-Feb-18 08:15N 09°13' W 079°56'0 0.4
2018-Feb-18 07:58N 09°13' W 079°56'3 3.4
2018-Feb-18 07:11N 09°16' W 079°55'0 1.9
2018-Feb-18 07:00N 09°16' W 079°55'0 0.4
2018-Feb-18 06:30N 09°16' W 079°55'0 0.4
2018-Feb-18 05:58N 09°17' W 079°55'0 0.5
2018-Feb-18 05:31N 09°17' W 079°55'0 0.9
2018-Feb-18 05:00N 09°17' W 079°55'1 3.0
2018-Feb-18 04:30N 09°19' W 079°55'3 6.7
2018-Feb-18 04:00N 09°22' W 079°55'2 4.7
2018-Feb-18 03:30N 09°24' W 079°56'0 0.8
2018-Feb-18 02:58N 09°24' W 079°57'0 0.0
2018-Feb-18 02:28N 09°24' W 079°57'0 0.0
2018-Feb-18 01:58N 09°24' W 079°57'0 0.0
2018-Feb-18 01:28N 09°24' W 079°57'0 0.0
2018-Feb-18 00:58N 09°24' W 079°57'0 0.0
2018-Feb-18 00:28N 09°24' W 079°57'0 0.0
2018-Feb-17 23:58N 09°24' W 079°57'0 0.0
2018-Feb-17 23:28N 09°24' W 079°57'0 0.0
2018-Feb-17 22:58N 09°24' W 079°57'0 0.0
2018-Feb-17 22:28N 09°24' W 079°57'0 0.0
2018-Feb-17 21:59N 09°24' W 079°57'0 0.0
2018-Feb-17 21:29N 09°24' W 079°57'2 5.0
2018-Feb-17 21:00N 09°24' W 079°54'2560.3 030 / 201014.0 5.4 27.024.126.3
2018-Feb-17 20:59N 09°24' W 079°57'0 0.0
2018-Feb-17 20:29N 09°24' W 079°57'0 0.0
2018-Feb-17 19:59N 09°24' W 079°57'0 0.0
2018-Feb-17 19:29N 09°24' W 079°57'0 0.0
2018-Feb-17 18:59N 09°24' W 079°57'0 0.0
2018-Feb-17 18:29N 09°24' W 079°57'0 0.0
2018-Feb-17 17:59N 09°24' W 079°57'0 0.0
2018-Feb-17 17:29N 09°24' W 079°57'0 0.0
2018-Feb-17 16:59N 09°24' W 079°57'0 0.0
2018-Feb-17 16:29N 09°24' W 079°57'0 0.0
2018-Feb-17 15:59N 09°24' W 079°57'0 0.0
2018-Feb-17 15:29N 09°24' W 079°57'0 0.0
2018-Feb-17 14:59N 09°24' W 079°57'0 0.0
2018-Feb-17 14:29N 09°24' W 079°57'0 0.0
2018-Feb-17 13:59N 09°24' W 079°57'0 0.0
2018-Feb-17 13:29N 09°24' W 079°57'0 0.0
2018-Feb-17 12:59N 09°24' W 079°57'0 0.0
2018-Feb-17 12:29N 09°24' W 079°57'0 0.0
2018-Feb-17 11:59N 09°24' W 079°57'0 0.0
2018-Feb-17 11:29N 09°24' W 079°57'0 0.0
2018-Feb-17 10:59N 09°24' W 079°57'0 0.0
2018-Feb-17 10:29N 09°24' W 079°57'0 0.0
2018-Feb-17 09:59N 09°24' W 079°57'0 0.0
2018-Feb-17 09:29N 09°24' W 079°57'0 0.0
2018-Feb-17 08:59N 09°24' W 079°57'0 0.0
2018-Feb-17 08:29N 09°24' W 079°57'0 0.0
2018-Feb-17 07:59N 09°24' W 079°57'0 0.0
2018-Feb-17 07:29N 09°24' W 079°57'0 0.0
2018-Feb-17 06:59N 09°24' W 079°57'0 0.0
2018-Feb-17 06:29N 09°24' W 079°57'0 0.0
2018-Feb-17 05:59N 09°24' W 079°57'0 0.0
2018-Feb-17 05:29N 09°24' W 079°57'0 0.0
2018-Feb-17 04:59N 09°24' W 079°57'0 0.0
2018-Feb-17 04:29N 09°24' W 079°57'0 0.0
2018-Feb-17 03:59N 09°24' W 079°57'0 0.0
2018-Feb-17 03:26N 09°24' W 079°57'0 0.0
2018-Feb-17 02:59N 09°24' W 079°57'0 0.0
2018-Feb-17 02:29N 09°24' W 079°57'0 0.0
2018-Feb-17 01:59N 09°24' W 079°57'0 0.0
2018-Feb-17 01:29N 09°24' W 079°57'612.9
2018-Feb-17 01:00N 09°18' W 079°54'6953.8 030 / 281014.110.8 27.025.626.3
2018-Feb-17 00:59N 09°24' W 079°57'0 0.0
2018-Feb-17 00:26N 09°24' W 079°57'0 0.0
2018-Feb-16 23:59N 09°24' W 079°57'0 0.0
2018-Feb-16 23:29N 09°24' W 079°57'0 0.0
2018-Feb-16 22:59N 09°24' W 079°57'0 0.0
2018-Feb-16 22:29N 09°24' W 079°57'0 0.0
2018-Feb-16 21:56N 09°24' W 079°57'0 0.0
2018-Feb-16 21:29N 09°24' W 079°57'0 0.1
2018-Feb-16 21:00N 09°24' W 079°56'1 2.2
2018-Feb-16 20:27N 09°24' W 079°58'3 7.1
2018-Feb-16 20:00N 09°27' W 079°57'24613.0
2018-Feb-16 01:00N 13°24' W 078°48'15412.8 060 / 261015.410.8 26.025.325.6
2018-Feb-15 13:00N 15°54' W 078°12'   080 / 231018.6 5.4 29.027.625.4

Dump ship's entire track history